Great Lakes, Illinois
Current Conditions -  °F | °C
As of 7:28 AM on Friday 28 Nov 2014 (Local Time) from KUGN Reporting Station
Light Snow Light Snow  
Wind Chill: 10°   Ceiling: 2300
Heat Index: 18°   Visibility: 0.75mi
Dew Point: 14°   Wind: 6mph
Humidity: 84%   Direction: 190°S
Pressure: 30.26"   Gusts: NA
Location:  42.31°N, 87.85°W
Report Text: KUGN 281328Z 19005KT 3/4SM -SN BR OVC023 M08/M10 A3026 RMK AO2 P0000 T10781100 $
Loading
Personal Weather Stations






























Interactive Weather Map New forecast layout! Learn more

10-Day Weather Forecast

Advertisements
Track Severe Weather on mobile